createdAt,value
2019-04-28T00:00:18.882Z,0.00
2019-04-28T00:01:17.872Z,0.00
2019-04-28T00:02:17.855Z,0.00
2019-04-28T00:03:17.852Z,0.00
2019-04-28T00:04:17.871Z,0.00
2019-04-28T00:05:17.819Z,0.00
2019-04-28T00:06:17.826Z,0.00
2019-04-28T00:07:17.810Z,0.00
2019-04-28T00:08:17.787Z,0.00
2019-04-28T00:09:17.794Z,0.00
2019-04-28T00:10:17.768Z,0.00
2019-04-28T00:11:17.772Z,0.00
2019-04-28T00:12:17.766Z,0.00
2019-04-28T00:13:17.736Z,0.00
2019-04-28T00:14:17.754Z,0.00
2019-04-28T00:15:17.746Z,0.00
2019-04-28T00:16:17.716Z,0.00
2019-04-28T00:17:17.725Z,0.00
2019-04-28T00:18:17.693Z,0.00
2019-04-28T00:19:17.683Z,0.00
2019-04-28T00:20:17.666Z,0.00
2019-04-28T00:21:17.659Z,0.00
2019-04-28T00:22:17.647Z,0.00
2019-04-28T00:23:17.638Z,0.00
2019-04-28T00:24:17.663Z,0.00
2019-04-28T00:25:17.621Z,0.00
2019-04-28T00:26:17.609Z,0.00
2019-04-28T00:27:17.597Z,0.00
2019-04-28T00:28:17.584Z,0.00
2019-04-28T00:29:17.579Z,0.00
2019-04-28T00:30:17.575Z,0.00
2019-04-28T00:31:17.573Z,0.00
2019-04-28T00:32:17.554Z,0.00
2019-04-28T00:33:17.576Z,0.00
2019-04-28T00:34:17.514Z,0.00
2019-04-28T00:35:17.522Z,0.00
2019-04-28T00:36:17.519Z,0.00
2019-04-28T00:37:17.491Z,0.00
2019-04-28T00:38:17.472Z,0.00
2019-04-28T00:39:17.467Z,0.00
2019-04-28T00:40:17.483Z,0.00
2019-04-28T00:41:17.468Z,0.00
2019-04-28T00:42:17.436Z,0.00
2019-04-28T00:43:17.439Z,0.00
2019-04-28T00:44:17.436Z,0.00
2019-04-28T00:45:17.421Z,0.00
2019-04-28T00:46:17.390Z,0.00
2019-04-28T00:47:17.389Z,0.00
2019-04-28T00:48:17.373Z,0.00
2019-04-28T00:49:17.358Z,0.00
2019-04-28T00:50:17.374Z,0.00
2019-04-28T00:51:17.336Z,0.00
2019-04-28T00:52:17.337Z,0.00
2019-04-28T00:53:17.323Z,0.00
2019-04-28T00:54:17.308Z,0.00
2019-04-28T00:55:17.309Z,0.00
2019-04-28T00:56:17.302Z,0.00
2019-04-28T00:57:17.284Z,0.00
2019-04-28T00:58:17.305Z,0.00
2019-04-28T00:59:17.258Z,0.00
2019-04-28T01:00:17.309Z,0.00
2019-04-28T01:01:17.233Z,0.00
2019-04-28T01:02:17.254Z,0.00
2019-04-28T01:03:17.215Z,0.00
2019-04-28T01:04:17.204Z,0.00
2019-04-28T01:05:17.234Z,0.00
2019-04-28T01:06:17.187Z,0.00
2019-04-28T01:07:17.169Z,0.00
2019-04-28T01:08:17.165Z,0.00
2019-04-28T01:09:17.155Z,0.00
2019-04-28T01:10:17.152Z,0.00
2019-04-28T01:11:17.138Z,0.00
2019-04-28T01:12:17.123Z,0.00
2019-04-28T01:13:17.107Z,0.00
2019-04-28T01:14:17.100Z,0.00
2019-04-28T01:15:17.097Z,0.00
2019-04-28T01:16:17.083Z,0.00
2019-04-28T01:17:17.070Z,0.00
2019-04-28T01:18:17.059Z,0.00
2019-04-28T01:19:17.044Z,0.00
2019-04-28T01:20:17.065Z,0.00
2019-04-28T01:21:17.023Z,0.00
2019-04-28T01:22:17.014Z,0.00
2019-04-28T01:23:17.039Z,0.00
2019-04-28T01:24:16.998Z,0.00
2019-04-28T01:25:16.988Z,0.00
2019-04-28T01:26:17.011Z,0.00
2019-04-28T01:27:16.958Z,0.00
2019-04-28T01:28:16.952Z,0.00
2019-04-28T01:29:16.989Z,0.00
2019-04-28T01:30:16.939Z,0.00
2019-04-28T01:31:16.942Z,0.00
2019-04-28T01:32:16.928Z,0.00
2019-04-28T01:33:16.900Z,0.00
2019-04-28T01:34:16.901Z,0.00
2019-04-28T01:35:16.878Z,0.00
2019-04-28T01:36:16.899Z,0.00
2019-04-28T01:37:16.859Z,0.00
2019-04-28T01:38:16.875Z,0.00
2019-04-28T01:39:16.846Z,0.00
2019-04-28T01:40:16.854Z,0.00
2019-04-28T01:41:16.850Z,0.00
2019-04-28T01:42:16.801Z,0.00
2019-04-28T01:43:16.832Z,0.00
2019-04-28T01:44:16.786Z,0.00
2019-04-28T01:45:16.770Z,0.00
2019-04-28T01:46:16.780Z,0.00
2019-04-28T01:47:16.756Z,0.00
2019-04-28T01:48:16.741Z,0.00
2019-04-28T01:49:16.732Z,0.00
2019-04-28T01:50:16.718Z,0.00
2019-04-28T01:51:16.759Z,0.00
2019-04-28T01:52:16.718Z,0.00
2019-04-28T01:53:16.704Z,0.00
2019-04-28T01:54:16.679Z,0.00
2019-04-28T01:55:16.670Z,0.00
2019-04-28T01:56:16.675Z,0.00
2019-04-28T01:57:16.645Z,0.00
2019-04-28T01:58:16.650Z,0.00
2019-04-28T01:59:16.643Z,0.00
2019-04-28T02:00:22.905Z,0.00
2019-04-28T02:01:17.618Z,0.00
2019-04-28T02:02:16.594Z,0.00
2019-04-28T02:03:16.601Z,0.00
2019-04-28T02:04:16.588Z,0.00
2019-04-28T02:05:16.567Z,0.00
2019-04-28T02:06:16.581Z,0.00
2019-04-28T02:07:16.541Z,0.00
2019-04-28T02:08:16.541Z,0.00
2019-04-28T02:09:16.523Z,0.00
2019-04-28T02:10:16.522Z,0.00
2019-04-28T02:11:16.521Z,0.00
2019-04-28T02:12:16.488Z,0.00
2019-04-28T02:13:16.503Z,0.00
2019-04-28T02:14:16.481Z,0.00
2019-04-28T02:15:16.459Z,0.00
2019-04-28T02:16:16.480Z,0.00
2019-04-28T02:17:16.451Z,0.00
2019-04-28T02:18:16.437Z,0.00
2019-04-28T02:19:16.417Z,0.00
2019-04-28T02:20:16.428Z,0.00
2019-04-28T02:21:16.411Z,0.00
2019-04-28T02:22:16.387Z,0.00
2019-04-28T02:23:16.378Z,0.00
2019-04-28T02:24:16.378Z,0.00
2019-04-28T02:25:16.352Z,0.00
2019-04-28T02:26:16.351Z,0.00
2019-04-28T02:27:16.335Z,0.00
2019-04-28T02:28:16.322Z,0.00
2019-04-28T02:29:16.326Z,0.00
2019-04-28T02:30:16.315Z,0.00
2019-04-28T02:31:16.320Z,0.00
2019-04-28T02:32:16.283Z,0.00
2019-04-28T02:33:16.279Z,0.00
2019-04-28T02:34:16.259Z,0.00
2019-04-28T02:35:16.271Z,0.00
2019-04-28T02:36:16.268Z,0.00
2019-04-28T02:37:16.233Z,0.00
2019-04-28T02:38:16.249Z,0.00
2019-04-28T02:39:16.220Z,0.00
2019-04-28T02:40:16.220Z,0.00
2019-04-28T02:41:16.192Z,0.00
2019-04-28T02:42:16.182Z,0.00
2019-04-28T02:43:16.171Z,0.00
2019-04-28T02:44:16.173Z,0.00
2019-04-28T02:45:16.159Z,0.00
2019-04-28T02:46:16.145Z,0.00
2019-04-28T02:47:16.146Z,0.00
2019-04-28T02:48:16.110Z,0.00
2019-04-28T02:49:16.129Z,0.00
2019-04-28T02:50:16.108Z,0.00
2019-04-28T02:51:16.101Z,0.00
2019-04-28T02:52:16.103Z,0.00
2019-04-28T02:53:16.065Z,0.00
2019-04-28T02:54:16.061Z,0.00
2019-04-28T02:55:16.065Z,0.00
2019-04-28T02:56:16.034Z,0.00
2019-04-28T02:57:16.035Z,0.00
2019-04-28T02:58:16.009Z,0.00
2019-04-28T02:59:16.001Z,0.00
2019-04-28T03:00:16.041Z,0.00
2019-04-28T03:01:24.958Z,0.00
2019-04-28T03:02:16.999Z,0.00
2019-04-28T03:03:15.973Z,0.00
2019-04-28T03:04:15.952Z,0.00
2019-04-28T03:05:15.960Z,0.00
2019-04-28T03:06:15.923Z,0.00
2019-04-28T03:07:15.960Z,0.00
2019-04-28T03:08:15.913Z,0.00
2019-04-28T03:09:15.900Z,0.00
2019-04-28T03:10:15.884Z,0.00
2019-04-28T03:11:15.870Z,0.00
2019-04-28T03:12:15.878Z,0.00
2019-04-28T03:13:15.868Z,0.00
2019-04-28T03:14:15.846Z,0.00
2019-04-28T03:15:15.837Z,0.00
2019-04-28T03:16:15.856Z,0.00
2019-04-28T03:17:15.820Z,0.00
2019-04-28T03:18:15.812Z,0.00
2019-04-28T03:19:15.811Z,0.00
2019-04-28T03:20:15.793Z,0.00
2019-04-28T03:21:15.765Z,0.00
2019-04-28T03:22:15.757Z,0.00
2019-04-28T03:23:15.764Z,0.00
2019-04-28T03:24:15.744Z,0.00
2019-04-28T03:25:15.736Z,0.00
2019-04-28T03:26:15.714Z,0.00
2019-04-28T03:27:15.708Z,0.00
2019-04-28T03:28:15.715Z,0.00
2019-04-28T03:29:15.684Z,0.00
2019-04-28T03:30:15.683Z,0.00
2019-04-28T03:31:48.943Z,0.00
2019-04-28T03:32:32.821Z,0.00
2019-04-28T03:33:18.983Z,0.00
2019-04-28T03:34:16.637Z,0.00
2019-04-28T03:35:15.656Z,0.00
2019-04-28T03:36:16.107Z,0.00
2019-04-28T03:37:15.605Z,0.00
2019-04-28T03:38:15.594Z,0.00
2019-04-28T03:39:15.591Z,0.00
2019-04-28T03:40:15.587Z,0.00
2019-04-28T03:41:15.555Z,0.00
2019-04-28T03:42:15.580Z,0.00
2019-04-28T03:43:15.549Z,0.00
2019-04-28T03:44:15.536Z,0.00
2019-04-28T03:45:15.526Z,0.00
2019-04-28T03:46:15.507Z,0.00
2019-04-28T03:47:15.495Z,0.00
2019-04-28T03:48:15.507Z,0.00
2019-04-28T03:49:15.489Z,0.00
2019-04-28T03:50:15.465Z,0.00
2019-04-28T03:51:15.453Z,0.00
2019-04-28T03:52:15.443Z,0.00
2019-04-28T03:53:15.445Z,0.00
2019-04-28T03:54:15.429Z,0.00
2019-04-28T03:55:15.419Z,0.00
2019-04-28T03:56:15.409Z,0.00
2019-04-28T03:57:15.392Z,0.00
2019-04-28T03:58:15.389Z,0.00
2019-04-28T03:59:15.371Z,0.00
2019-04-28T04:00:15.373Z,0.00
2019-04-28T04:01:15.359Z,0.00
2019-04-28T04:02:15.358Z,0.00
2019-04-28T04:03:16.114Z,0.00
2019-04-28T04:04:15.328Z,0.00
2019-04-28T04:05:15.310Z,0.00
2019-04-28T04:06:15.303Z,0.00
2019-04-28T04:07:15.305Z,0.00
2019-04-28T04:08:15.274Z,5.62
2019-04-28T04:09:15.279Z,5.62
2019-04-28T04:10:15.284Z,5.62
2019-04-28T04:11:15.244Z,5.62
2019-04-28T04:12:15.261Z,5.62
2019-04-28T04:13:15.236Z,5.62
2019-04-28T04:14:15.237Z,5.62
2019-04-28T04:15:15.219Z,5.62
2019-04-28T04:16:15.189Z,11.25
2019-04-28T04:17:15.196Z,11.25
2019-04-28T04:18:15.185Z,11.25
2019-04-28T04:19:15.168Z,11.25
2019-04-28T04:20:15.164Z,11.25
2019-04-28T04:21:15.148Z,11.25
2019-04-28T04:22:15.133Z,11.25
2019-04-28T04:23:15.116Z,16.88
2019-04-28T04:24:15.119Z,16.88
2019-04-28T04:25:15.118Z,16.88
2019-04-28T04:26:15.111Z,16.88
2019-04-28T04:27:15.095Z,16.88
2019-04-28T04:28:15.075Z,22.50
2019-04-28T04:29:15.125Z,22.50
2019-04-28T04:30:15.045Z,22.50
2019-04-28T04:31:15.039Z,22.50
2019-04-28T04:32:23.196Z,22.50
2019-04-28T04:33:16.030Z,22.50
2019-04-28T04:34:15.011Z,28.12
2019-04-28T04:35:15.001Z,28.12
2019-04-28T04:36:15.013Z,28.12
2019-04-28T04:37:14.974Z,28.12
2019-04-28T04:38:14.971Z,28.12
2019-04-28T04:39:14.992Z,28.12
2019-04-28T04:40:14.937Z,28.12
2019-04-28T04:41:14.949Z,28.12
2019-04-28T04:42:14.939Z,28.12
2019-04-28T04:43:14.917Z,28.12
2019-04-28T04:44:14.919Z,28.12
2019-04-28T04:45:14.921Z,28.12
2019-04-28T04:46:14.875Z,28.12
2019-04-28T04:47:14.881Z,28.12
2019-04-28T04:48:14.857Z,28.12
2019-04-28T04:49:14.870Z,28.12
2019-04-28T04:50:14.833Z,28.12
2019-04-28T04:51:14.828Z,28.12
2019-04-28T04:52:14.813Z,28.12
2019-04-28T04:53:14.825Z,28.12
2019-04-28T04:54:14.829Z,33.75
2019-04-28T04:55:14.791Z,33.75
2019-04-28T04:56:14.789Z,39.38
2019-04-28T04:57:14.771Z,45.00
2019-04-28T04:58:14.754Z,45.00
2019-04-28T04:59:14.780Z,50.62
2019-04-28T05:00:14.734Z,50.62
2019-04-28T05:01:14.724Z,50.62
2019-04-28T05:02:26.502Z,50.62
2019-04-28T05:03:15.711Z,50.62
2019-04-28T05:04:14.700Z,45.00
2019-04-28T05:05:14.688Z,45.00
2019-04-28T05:06:14.682Z,45.00
2019-04-28T05:07:14.662Z,45.00
2019-04-28T05:08:15.573Z,45.00
2019-04-28T05:09:14.663Z,45.00
2019-04-28T05:10:14.634Z,45.00
2019-04-28T05:11:14.614Z,45.00
2019-04-28T05:12:14.620Z,50.62
2019-04-28T05:13:14.615Z,50.62
2019-04-28T05:14:14.608Z,56.25
2019-04-28T05:15:14.589Z,61.88
2019-04-28T05:16:14.567Z,67.50
2019-04-28T05:17:14.572Z,67.50
2019-04-28T05:18:14.570Z,67.50
2019-04-28T05:19:14.531Z,61.88
2019-04-28T05:20:14.576Z,61.88
2019-04-28T05:21:14.522Z,56.25
2019-04-28T05:22:14.499Z,56.25
2019-04-28T05:23:14.504Z,61.88
2019-04-28T05:24:15.926Z,61.88
2019-04-28T05:25:14.478Z,61.88
2019-04-28T05:26:14.480Z,61.88
2019-04-28T05:27:17.506Z,61.88
2019-04-28T05:28:15.440Z,67.50
2019-04-28T05:29:14.430Z,61.88
2019-04-28T05:30:14.447Z,61.88
2019-04-28T05:31:22.721Z,61.88
2019-04-28T05:32:15.392Z,61.88
2019-04-28T05:33:14.418Z,61.88
2019-04-28T05:34:14.372Z,61.88
2019-04-28T05:35:17.617Z,61.88
2019-04-28T05:36:15.351Z,61.88
2019-04-28T05:37:14.359Z,61.88
2019-04-28T05:38:14.354Z,61.88
2019-04-28T05:39:14.330Z,61.88
2019-04-28T05:40:14.339Z,61.88
2019-04-28T05:41:14.322Z,67.50
2019-04-28T05:42:14.292Z,67.50
2019-04-28T05:43:14.280Z,67.50
2019-04-28T05:44:14.309Z,67.50
2019-04-28T05:45:14.299Z,67.50
2019-04-28T05:46:14.255Z,67.50
2019-04-28T05:47:14.244Z,73.12
2019-04-28T05:48:14.243Z,73.12
2019-04-28T05:49:14.214Z,73.12
2019-04-28T05:50:14.223Z,73.12
2019-04-28T05:51:14.214Z,73.12
2019-04-28T05:52:14.185Z,78.75
2019-04-28T05:53:14.173Z,73.12
2019-04-28T05:54:14.167Z,78.75
2019-04-28T05:55:14.174Z,78.75
2019-04-28T05:56:14.159Z,78.75
2019-04-28T05:57:14.132Z,78.75
2019-04-28T05:58:14.130Z,78.75
2019-04-28T05:59:14.115Z,78.75
2019-04-28T06:00:14.127Z,78.75
2019-04-28T06:01:14.093Z,78.75
2019-04-28T06:02:14.093Z,78.75
2019-04-28T06:03:14.086Z,78.75
2019-04-28T06:04:14.057Z,84.38
2019-04-28T06:05:14.072Z,84.38
2019-04-28T06:06:14.074Z,84.38
2019-04-28T06:07:14.038Z,84.38
2019-04-28T06:08:14.021Z,84.38
2019-04-28T06:09:14.036Z,84.38
2019-04-28T06:10:14.013Z,84.38
2019-04-28T06:11:14.012Z,84.38
2019-04-28T06:12:13.982Z,84.38
2019-04-28T06:13:13.977Z,84.38
2019-04-28T06:14:13.955Z,84.38
2019-04-28T06:15:13.970Z,84.38
2019-04-28T06:16:13.944Z,84.38
2019-04-28T06:17:13.925Z,84.38
2019-04-28T06:18:13.943Z,90.00
2019-04-28T06:19:13.903Z,90.00
2019-04-28T06:20:13.904Z,90.00
2019-04-28T06:21:13.881Z,90.00
2019-04-28T06:22:13.886Z,90.00
2019-04-28T06:23:13.868Z,90.00
2019-04-28T06:24:13.853Z,90.00
2019-04-28T06:25:13.880Z,90.00
2019-04-28T06:26:13.850Z,90.00
2019-04-28T06:27:13.818Z,90.00
2019-04-28T06:28:13.816Z,90.00
2019-04-28T06:29:13.796Z,90.00
2019-04-28T06:30:13.811Z,95.62
2019-04-28T06:31:13.799Z,95.62
2019-04-28T06:32:13.766Z,95.62
2019-04-28T06:33:13.768Z,95.62
2019-04-28T06:34:13.744Z,95.62
2019-04-28T06:35:13.738Z,95.62
2019-04-28T06:36:13.753Z,95.62
2019-04-28T06:37:13.734Z,95.62
2019-04-28T06:38:13.715Z,101.25
2019-04-28T06:39:13.704Z,101.25
2019-04-28T06:40:13.688Z,106.88
2019-04-28T06:41:13.690Z,118.12
2019-04-28T06:42:13.661Z,129.38
2019-04-28T06:43:13.657Z,129.38
2019-04-28T06:44:13.651Z,140.62
2019-04-28T06:45:13.647Z,168.75
2019-04-28T06:46:13.645Z,185.62
2019-04-28T06:47:16.543Z,168.75
2019-04-28T06:48:13.600Z,135.00
2019-04-28T06:49:13.590Z,106.88
2019-04-28T06:50:13.583Z,101.25
2019-04-28T06:51:13.593Z,106.88
2019-04-28T06:52:13.603Z,123.75
2019-04-28T06:53:13.551Z,129.38
2019-04-28T06:54:13.534Z,129.38
2019-04-28T06:55:13.545Z,112.50
2019-04-28T06:56:13.531Z,106.88
2019-04-28T06:57:13.504Z,118.12
2019-04-28T06:58:13.522Z,118.12
2019-04-28T06:59:13.483Z,129.38
2019-04-28T07:00:13.472Z,151.88
2019-04-28T07:01:13.497Z,180.00
2019-04-28T07:02:13.477Z,208.12
2019-04-28T07:03:22.920Z,213.75
2019-04-28T07:04:14.429Z,241.88
2019-04-28T07:05:13.435Z,236.25
2019-04-28T07:06:13.407Z,241.88
2019-04-28T07:07:13.412Z,241.88
2019-04-28T07:08:13.991Z,219.38
2019-04-28T07:09:13.434Z,163.12
2019-04-28T07:10:13.388Z,163.12
2019-04-28T07:11:13.356Z,185.62
2019-04-28T07:12:13.362Z,180.00
2019-04-28T07:13:13.338Z,168.75
2019-04-28T07:14:13.324Z,168.75
2019-04-28T07:15:13.327Z,185.62
2019-04-28T07:16:13.350Z,208.12
2019-04-28T07:17:13.319Z,213.75
2019-04-28T07:18:13.281Z,191.25
2019-04-28T07:19:13.276Z,191.25
2019-04-28T07:20:13.265Z,196.88
2019-04-28T07:21:13.261Z,208.12
2019-04-28T07:22:13.249Z,236.25
2019-04-28T07:23:13.231Z,247.50
2019-04-28T07:24:13.223Z,241.88
2019-04-28T07:25:13.217Z,213.75
2019-04-28T07:26:13.218Z,196.88
2019-04-28T07:27:13.211Z,202.50
2019-04-28T07:28:13.190Z,191.25
2019-04-28T07:29:13.173Z,185.62
2019-04-28T07:30:13.154Z,180.00
2019-04-28T07:31:13.143Z,185.62
2019-04-28T07:32:13.157Z,196.88
2019-04-28T07:33:13.134Z,213.75
2019-04-28T07:34:13.112Z,236.25
2019-04-28T07:35:13.103Z,253.12
2019-04-28T07:36:13.114Z,253.12
2019-04-28T07:37:13.096Z,241.88
2019-04-28T07:38:13.076Z,225.00
2019-04-28T07:39:13.093Z,219.38
2019-04-28T07:40:13.091Z,196.88
2019-04-28T07:41:13.041Z,180.00
2019-04-28T07:42:13.082Z,174.38
2019-04-28T07:43:13.039Z,180.00
2019-04-28T07:44:13.015Z,180.00
2019-04-28T07:45:13.004Z,180.00
2019-04-28T07:46:12.988Z,185.62
2019-04-28T07:47:12.988Z,180.00
2019-04-28T07:48:12.971Z,180.00
2019-04-28T07:49:12.970Z,202.50
2019-04-28T07:50:12.945Z,258.75
2019-04-28T07:51:12.961Z,298.12
2019-04-28T07:52:12.961Z,286.88
2019-04-28T07:53:12.922Z,275.62
2019-04-28T07:54:12.910Z,286.88
2019-04-28T07:55:12.895Z,258.75
2019-04-28T07:56:12.896Z,270.00
2019-04-28T07:57:12.908Z,298.12
2019-04-28T07:58:12.865Z,281.25
2019-04-28T07:59:12.855Z,270.00
2019-04-28T08:00:12.854Z,258.75
2019-04-28T08:01:12.858Z,275.62
2019-04-28T08:02:12.832Z,303.75
2019-04-28T08:03:12.810Z,365.62
2019-04-28T08:04:12.799Z,421.88
2019-04-28T08:05:12.800Z,427.50
2019-04-28T08:06:12.777Z,360.00
2019-04-28T08:07:12.815Z,258.75
2019-04-28T08:08:12.781Z,163.12
2019-04-28T08:09:12.744Z,112.50
2019-04-28T08:10:12.746Z,84.38
2019-04-28T08:11:12.745Z,67.50
2019-04-28T08:12:12.730Z,61.88
2019-04-28T08:13:12.721Z,61.88
2019-04-28T08:14:12.700Z,73.12
2019-04-28T08:15:12.679Z,78.75
2019-04-28T08:16:12.673Z,90.00
2019-04-28T08:17:12.658Z,95.62
2019-04-28T08:18:12.659Z,112.50
2019-04-28T08:19:12.636Z,118.12
2019-04-28T08:20:12.631Z,123.75
2019-04-28T08:21:12.635Z,135.00
2019-04-28T08:22:12.611Z,140.62
2019-04-28T08:23:12.607Z,146.25
2019-04-28T08:24:12.584Z,163.12
2019-04-28T08:25:12.575Z,174.38
2019-04-28T08:26:12.562Z,174.38
2019-04-28T08:27:12.552Z,163.12
2019-04-28T08:28:12.554Z,151.88
2019-04-28T08:29:12.548Z,140.62
2019-04-28T08:30:12.528Z,146.25
2019-04-28T08:31:12.510Z,151.88
2019-04-28T08:32:12.504Z,151.88
2019-04-28T08:33:12.495Z,157.50
2019-04-28T08:34:12.483Z,180.00
2019-04-28T08:35:12.500Z,208.12
2019-04-28T08:36:12.458Z,253.12
2019-04-28T08:37:12.448Z,270.00
2019-04-28T08:38:12.446Z,258.75
2019-04-28T08:39:12.434Z,270.00
2019-04-28T08:40:12.425Z,270.00
2019-04-28T08:41:12.408Z,326.25
2019-04-28T08:42:12.395Z,388.12
2019-04-28T08:43:12.390Z,371.25
2019-04-28T08:44:12.378Z,337.50
2019-04-28T08:45:12.381Z,298.12
2019-04-28T08:46:12.376Z,264.38
2019-04-28T08:47:12.344Z,264.38
2019-04-28T08:48:12.351Z,275.62
2019-04-28T08:49:12.326Z,286.88
2019-04-28T08:50:12.313Z,298.12
2019-04-28T08:51:12.303Z,337.50
2019-04-28T08:52:12.289Z,376.88
2019-04-28T08:53:14.018Z,399.38
2019-04-28T08:54:12.276Z,410.62
2019-04-28T08:55:12.255Z,433.12
2019-04-28T08:56:12.246Z,472.50
2019-04-28T08:57:12.241Z,500.62
2019-04-28T08:58:12.276Z,511.88
2019-04-28T08:59:12.225Z,495.00
2019-04-28T09:00:12.206Z,472.50
2019-04-28T09:01:12.197Z,405.00
2019-04-28T09:02:12.189Z,343.12
2019-04-28T09:03:12.181Z,281.25
2019-04-28T09:04:15.633Z,213.75
2019-04-28T09:05:12.153Z,157.50
2019-04-28T09:06:12.141Z,112.50
2019-04-28T09:07:12.130Z,84.38
2019-04-28T09:08:12.129Z,67.50
2019-04-28T09:09:12.108Z,61.88
2019-04-28T09:10:12.095Z,50.62
2019-04-28T09:11:12.085Z,50.62
2019-04-28T09:12:12.074Z,50.62
2019-04-28T09:13:12.091Z,56.25
2019-04-28T09:14:12.056Z,61.88
2019-04-28T09:15:12.043Z,67.50
2019-04-28T09:16:12.038Z,73.12
2019-04-28T09:17:12.056Z,78.75
2019-04-28T09:18:12.017Z,95.62
2019-04-28T09:19:12.019Z,118.12
2019-04-28T09:20:11.991Z,135.00
2019-04-28T09:21:11.979Z,151.88
2019-04-28T09:22:11.966Z,157.50
2019-04-28T09:23:11.961Z,157.50
2019-04-28T09:24:11.955Z,157.50
2019-04-28T09:25:11.935Z,157.50
2019-04-28T09:26:11.923Z,168.75
2019-04-28T09:27:11.916Z,191.25
2019-04-28T09:28:11.909Z,225.00
2019-04-28T09:29:11.935Z,241.88
2019-04-28T09:30:11.888Z,253.12
2019-04-28T09:31:11.877Z,230.62
2019-04-28T09:32:11.873Z,219.38
2019-04-28T09:33:11.864Z,213.75
2019-04-28T09:34:11.860Z,219.38
2019-04-28T09:35:11.833Z,225.00
2019-04-28T09:36:11.829Z,241.88
2019-04-28T09:37:11.810Z,264.38
2019-04-28T09:38:11.799Z,275.62
2019-04-28T09:39:11.799Z,303.75
2019-04-28T09:40:11.774Z,258.75
2019-04-28T09:41:11.763Z,253.12
2019-04-28T09:42:11.779Z,253.12
2019-04-28T09:43:11.742Z,253.12
2019-04-28T09:44:11.746Z,258.75
2019-04-28T09:45:11.752Z,264.38
2019-04-28T09:46:11.711Z,264.38
2019-04-28T09:47:11.699Z,275.62
2019-04-28T09:48:11.689Z,303.75
2019-04-28T09:49:11.701Z,337.50
2019-04-28T09:50:11.670Z,371.25
2019-04-28T09:51:11.671Z,405.00
2019-04-28T09:52:11.645Z,478.12
2019-04-28T09:53:11.635Z,523.12
2019-04-28T09:54:11.646Z,540.00
2019-04-28T09:55:11.615Z,500.62
2019-04-28T09:56:11.605Z,466.88
2019-04-28T09:57:11.610Z,455.62
2019-04-28T09:58:11.584Z,444.38
2019-04-28T09:59:11.596Z,388.12
2019-04-28T10:00:11.567Z,382.50
2019-04-28T10:01:11.552Z,376.88
2019-04-28T10:02:11.545Z,365.62
2019-04-28T10:03:11.545Z,331.88
2019-04-28T10:04:11.519Z,298.12
2019-04-28T10:05:11.533Z,270.00
2019-04-28T10:06:11.500Z,253.12
2019-04-28T10:07:11.496Z,241.88
2019-04-28T10:08:11.480Z,230.62
2019-04-28T10:09:11.480Z,213.75
2019-04-28T10:10:11.467Z,191.25
2019-04-28T10:11:11.443Z,174.38
2019-04-28T10:12:11.432Z,151.88
2019-04-28T10:13:11.422Z,140.62
2019-04-28T10:14:11.437Z,129.38
2019-04-28T10:15:11.416Z,123.75
2019-04-28T10:16:11.391Z,123.75
2019-04-28T10:17:11.379Z,112.50
2019-04-28T10:18:11.370Z,112.50
2019-04-28T10:19:11.375Z,106.88
2019-04-28T10:20:11.373Z,112.50
2019-04-28T10:21:11.337Z,129.38
2019-04-28T10:22:11.326Z,146.25
2019-04-28T10:23:11.379Z,157.50
2019-04-28T10:24:11.306Z,168.75
2019-04-28T10:25:11.306Z,174.38
2019-04-28T10:26:11.284Z,174.38
2019-04-28T10:27:11.276Z,168.75
2019-04-28T10:28:11.267Z,163.12
2019-04-28T10:29:11.255Z,157.50
2019-04-28T10:30:11.254Z,151.88
2019-04-28T10:31:13.410Z,146.25
2019-04-28T10:32:11.220Z,146.25
2019-04-28T10:33:11.211Z,140.62
2019-04-28T10:34:11.204Z,140.62
2019-04-28T10:35:11.225Z,135.00
2019-04-28T10:36:11.208Z,135.00
2019-04-28T10:37:11.167Z,140.62
2019-04-28T10:38:11.161Z,146.25
2019-04-28T10:39:11.152Z,157.50
2019-04-28T10:40:11.174Z,168.75
2019-04-28T10:41:11.124Z,191.25
2019-04-28T10:42:11.119Z,213.75
2019-04-28T10:43:11.106Z,247.50
2019-04-28T10:44:11.093Z,275.62
2019-04-28T10:45:11.103Z,309.38
2019-04-28T10:46:11.083Z,348.75
2019-04-28T10:47:11.063Z,405.00
2019-04-28T10:48:11.051Z,455.62
2019-04-28T10:49:11.041Z,511.88
2019-04-28T10:50:11.064Z,534.38
2019-04-28T10:51:11.020Z,551.25
2019-04-28T10:52:11.009Z,551.25
2019-04-28T10:53:11.010Z,534.38
2019-04-28T10:54:10.987Z,517.50
2019-04-28T10:55:10.988Z,500.62
2019-04-28T10:56:10.967Z,489.38
2019-04-28T10:57:10.954Z,483.75
2019-04-28T10:58:10.956Z,455.62
2019-04-28T10:59:10.940Z,461.25
2019-04-28T11:00:10.942Z,472.50
2019-04-28T11:01:10.916Z,483.75
2019-04-28T11:02:10.902Z,495.00
2019-04-28T11:03:10.891Z,506.25
2019-04-28T11:04:10.884Z,500.62
2019-04-28T11:05:10.887Z,506.25
2019-04-28T11:06:12.619Z,551.25
2019-04-28T11:07:10.851Z,540.00
2019-04-28T11:08:10.847Z,517.50
2019-04-28T11:09:10.826Z,461.25
2019-04-28T11:10:10.832Z,410.62
2019-04-28T11:11:10.808Z,371.25
2019-04-28T11:12:10.799Z,320.62
2019-04-28T11:13:10.783Z,281.25
2019-04-28T11:14:10.772Z,264.38
2019-04-28T11:15:10.777Z,236.25
2019-04-28T11:16:10.797Z,208.12
2019-04-28T11:17:10.743Z,202.50
2019-04-28T11:18:10.737Z,219.38
2019-04-28T11:19:10.724Z,241.88
2019-04-28T11:20:10.736Z,264.38
2019-04-28T11:21:10.699Z,275.62
2019-04-28T11:22:10.689Z,292.50
2019-04-28T11:23:10.684Z,286.88
2019-04-28T11:24:10.676Z,281.25
2019-04-28T11:25:10.656Z,281.25
2019-04-28T11:26:10.659Z,275.62
2019-04-28T11:27:10.692Z,281.25
2019-04-28T11:28:10.633Z,292.50
2019-04-28T11:29:10.627Z,303.75
2019-04-28T11:30:10.610Z,320.62
2019-04-28T11:31:10.624Z,331.88
2019-04-28T11:32:10.585Z,343.12
2019-04-28T11:33:10.591Z,348.75
2019-04-28T11:34:10.571Z,360.00
2019-04-28T11:35:20.906Z,365.62
2019-04-28T11:36:11.560Z,365.62
2019-04-28T11:37:10.530Z,365.62
2019-04-28T11:38:10.525Z,354.38
2019-04-28T11:39:10.514Z,331.88
2019-04-28T11:40:10.532Z,315.00
2019-04-28T11:41:11.676Z,298.12
2019-04-28T11:42:10.480Z,292.50
2019-04-28T11:43:10.473Z,298.12
2019-04-28T11:44:10.459Z,315.00
2019-04-28T11:45:10.445Z,331.88
2019-04-28T11:46:10.442Z,343.12
2019-04-28T11:47:10.424Z,354.38
2019-04-28T11:48:10.429Z,365.62
2019-04-28T11:49:10.403Z,371.25
2019-04-28T11:50:10.395Z,371.25
2019-04-28T11:51:10.393Z,376.88
2019-04-28T11:52:10.372Z,376.88
2019-04-28T11:53:10.388Z,382.50
2019-04-28T11:54:10.354Z,388.12
2019-04-28T11:55:10.339Z,393.75
2019-04-28T11:56:10.345Z,405.00
2019-04-28T11:57:10.318Z,410.62
2019-04-28T11:58:10.311Z,416.25
2019-04-28T11:59:10.296Z,421.88
2019-04-28T12:00:10.295Z,433.12
2019-04-28T12:01:10.299Z,444.38
2019-04-28T12:02:10.264Z,450.00
2019-04-28T12:03:10.259Z,461.25
2019-04-28T12:04:10.243Z,466.88
2019-04-28T12:05:10.232Z,450.00
2019-04-28T12:06:10.260Z,433.12
2019-04-28T12:07:10.214Z,427.50
2019-04-28T12:08:10.202Z,433.12
2019-04-28T12:09:10.207Z,450.00
2019-04-28T12:10:10.179Z,466.88
2019-04-28T12:11:10.172Z,495.00
2019-04-28T12:12:10.170Z,517.50
2019-04-28T12:13:10.149Z,562.50
2019-04-28T12:14:10.150Z,652.50
2019-04-28T12:15:10.135Z,748.12
2019-04-28T12:16:10.117Z,770.62
2019-04-28T12:17:10.118Z,770.62
2019-04-28T12:18:10.093Z,832.50
2019-04-28T12:19:10.084Z,945.00
2019-04-28T12:20:10.087Z,1012.50
2019-04-28T12:21:10.062Z,1091.25
2019-04-28T12:22:10.069Z,1158.75
2019-04-28T12:23:10.043Z,1271.25
2019-04-28T12:24:10.031Z,1378.12
2019-04-28T12:25:10.019Z,1968.75
2019-04-28T12:26:10.025Z,2334.38
2019-04-28T12:27:10.012Z,2407.50
2019-04-28T12:28:10.010Z,3127.50
2019-04-28T12:29:09.983Z,1929.38
2019-04-28T12:30:09.970Z,1704.38
2019-04-28T12:31:09.957Z,2070.00
2019-04-28T12:32:09.958Z,2705.62
2019-04-28T12:33:09.935Z,2210.62
2019-04-28T12:34:09.924Z,2874.38
2019-04-28T12:35:09.912Z,3931.88
2019-04-28T12:36:09.907Z,4713.75
2019-04-28T12:37:09.945Z,3729.38
2019-04-28T12:38:09.882Z,4865.62
2019-04-28T12:39:09.871Z,4438.12
2019-04-28T12:40:09.861Z,2958.75
2019-04-28T12:41:09.849Z,3521.25
2019-04-28T12:42:09.851Z,1631.25
2019-04-28T12:43:09.829Z,1310.62
2019-04-28T12:44:09.818Z,1288.12
2019-04-28T12:45:09.815Z,2154.38
2019-04-28T12:46:09.801Z,1305.00
2019-04-28T12:47:09.799Z,1040.62
2019-04-28T12:48:09.777Z,984.38